Meteo Giornale » Osservazioni meteo Giordania » Aqaba
ore: 08:00 - Osservazioni Meteo Aqaba
Lat. 29° 38' N Lon. 35° 1' E Alt. 53 metri s.l.m.
29 °C
Sereno
Temp. 24 Ore
27 °C
38 °C
Nord
25.9 Km/h
Dew point 16 °C
Umidità 45 %
Visibilità 10 Km
Il sole sorge alle ore 06:17
Il sole tramonta alle ore 19:02
| Data e Ora | Cielo e Fenomeni | T °C | DP °C | Um. % | Pres. hPa | Vis. km | Vento km/h | |
|---|---|---|---|---|---|---|---|---|
| Oggi h: 08:00 | Sereno | 29 | 16 | 45 | 1010 | 10 | N 25.9 | |
| Oggi h: 07:00 | Sereno | 28 | 15 | 45 | 1009 | 10 | N/NO 18.5 | |
| Oggi h: 06:00 | Sereno | 27 | 15 | 47 | 1009 | 10 | N 14.8 | |
| Oggi h: 05:00 | Sereno | 28 | 16 | 48 | 1009 | 10 | N/NO 22.2 | |
| Oggi h: 04:00 | Sereno | 28 | 16 | 48 | 1009 | 10 | N/NO 22.2 | |
| Oggi h: 03:00 | Sereno | 29 | 16 | 45 | 1009 | 10 | N 25.9 | |
| Oggi h: 02:00 | Sereno | 29 | 16 | 45 | 1009 | 10 | N 25.9 | |
| Oggi h: 01:00 | Sereno | 30 | 16 | 42 | 1009 | 10 | N 22.2 | |
| Oggi h: 00:00 | Sereno | 31 | 16 | 40 | 1009 | 10 | N 29.6 | |
| Ieri h: 23:00 | Sereno | 32 | 17 | 40 | 1009 | 10 | N 25.9 | |
| Ieri h: 22:00 | Sereno | 33 | 14 | 31 | 1008 | 10 | N/NO 14.8 | |
| Ieri h: 21:00 | Sereno | 34 | 14 | 30 | 1008 | 10 | N 22.2 | |
| Ieri h: 20:00 | Sereno | 35 | 13 | 26 | 1007 | 10 | N 22.2 | |
| Ieri h: 19:00 | Sereno | 36 | 11 | 22 | 1007 | 10 | N 18.5 | |
| Ieri h: 18:00 | Sereno | 37 | 10 | 19 | 1007 | 7 | N 14.8 | |
| Ieri h: 17:00 | Sereno | 37 | 9 | 18 | 1007 | 7 | N/NO 25.9 | |
| Ieri h: 16:00 | Sereno | 38 | 9 | 17 | 1007 | 6 | N/NO 18.5 | |
| Ieri h: 15:00 | Sereno | 37 | 9 | 18 | 1008 | 6 | N/NO 18.5 | |
| Ieri h: 14:00 | Sereno | 37 | 10 | 19 | 1008 | 6 | N/NO 27.8 | |
| Ieri h: 13:00 | Sereno | 36 | 9 | 19 | 1009 | 6 | N/NO 33.3 | |
| Ieri h: 12:00 | Sereno | 34 | 10 | 23 | 1010 | 7 | N/NO 22.2 | |
| Ieri h: 11:00 | Sereno | 32 | 14 | 33 | 1010 | 7 | N/NO 29.6 | |
| Ieri h: 10:00 | Sereno | 31 | 15 | 37 | 1011 | 10 | N 22.2 | |
| Ieri h: 09:00 | Sereno | 30 | 15 | 40 | 1011 | 10 | N 18.5 | |



